sensor_id;sensor_type;location;lat;lon;timestamp;pressure;altitude;pressure_sealevel;temperature;humidity
75640;BME280;64233;51.486;6.332;2023-11-19T00:00:18;95023.28;;;11.02;100.00
75640;BME280;64233;51.486;6.332;2023-11-19T00:02:43;95094.50;;;11.11;100.00
75640;BME280;64233;51.486;6.332;2023-11-19T00:05:10;95183.41;;;11.06;100.00
75640;BME280;64233;51.486;6.332;2023-11-19T00:07:36;95209.09;;;11.07;100.00
75640;BME280;64233;51.486;6.332;2023-11-19T00:10:02;95234.38;;;11.09;100.00
75640;BME280;64233;51.486;6.332;2023-11-19T00:12:32;95235.94;;;11.10;100.00
75640;BME280;64233;51.486;6.332;2023-11-19T00:14:57;95371.97;;;11.02;100.00
75640;BME280;64233;51.486;6.332;2023-11-19T00:17:22;95560.50;;;10.99;100.00
75640;BME280;64233;51.486;6.332;2023-11-19T00:19:47;95383.84;;;11.05;100.00
75640;BME280;64233;51.486;6.332;2023-11-19T00:22:14;95512.63;;;11.05;100.00
75640;BME280;64233;51.486;6.332;2023-11-19T00:24:39;95393.03;;;11.04;100.00
75640;BME280;64233;51.486;6.332;2023-11-19T00:27:04;95768.66;;;11.15;100.00
75640;BME280;64233;51.486;6.332;2023-11-19T00:29:30;95848.78;;;11.13;100.00
75640;BME280;64233;51.486;6.332;2023-11-19T00:31:55;95479.66;;;11.15;100.00
75640;BME280;64233;51.486;6.332;2023-11-19T00:34:21;95427.91;;;11.11;100.00
75640;BME280;64233;51.486;6.332;2023-11-19T00:36:47;95550.97;;;11.13;100.00
75640;BME280;64233;51.486;6.332;2023-11-19T00:39:13;95496.13;;;11.14;100.00
75640;BME280;64233;51.486;6.332;2023-11-19T00:41:40;95615.72;;;11.11;100.00
75640;BME280;64233;51.486;6.332;2023-11-19T00:44:05;95339.00;;;11.16;100.00
75640;BME280;64233;51.486;6.332;2023-11-19T00:46:31;95441.34;;;11.18;100.00
75640;BME280;64233;51.486;6.332;2023-11-19T00:48:58;95400.69;;;11.16;100.00
75640;BME280;64233;51.486;6.332;2023-11-19T00:51:25;95394.19;;;11.14;100.00
75640;BME280;64233;51.486;6.332;2023-11-19T00:53:51;95337.44;;;11.15;100.00
75640;BME280;64233;51.486;6.332;2023-11-19T00:56:18;95278.03;;;11.20;100.00
75640;BME280;64233;51.486;6.332;2023-11-19T00:58:44;95379.25;;;11.20;100.00
75640;BME280;64233;51.486;6.332;2023-11-19T01:01:11;95310.25;;;11.24;100.00
75640;BME280;64233;51.486;6.332;2023-11-19T01:03:36;95324.03;;;11.26;100.00
75640;BME280;64233;51.486;6.332;2023-11-19T01:06:02;95302.56;;;11.26;100.00
75640;BME280;64233;51.486;6.332;2023-11-19T01:08:27;95290.69;;;11.27;100.00
75640;BME280;64233;51.486;6.332;2023-11-19T01:10:52;95318.66;;;11.26;100.00
75640;BME280;64233;51.486;6.332;2023-11-19T01:13:18;95328.25;;;11.24;100.00
75640;BME280;64233;51.486;6.332;2023-11-19T01:15:43;95273.03;;;11.23;100.00
75640;BME280;64233;51.486;6.332;2023-11-19T01:18:08;95271.13;;;11.23;100.00
75640;BME280;64233;51.486;6.332;2023-11-19T01:20:34;95285.69;;;11.22;100.00
75640;BME280;64233;51.486;6.332;2023-11-19T01:23:00;95239.69;;;11.24;100.00
75640;BME280;64233;51.486;6.332;2023-11-19T01:25:25;95205.97;;;11.23;100.00
75640;BME280;64233;51.486;6.332;2023-11-19T01:27:50;95193.28;;;11.27;100.00
75640;BME280;64233;51.486;6.332;2023-11-19T01:30:16;95205.56;;;11.31;100.00
75640;BME280;64233;51.486;6.332;2023-11-19T01:32:41;95210.53;;;11.29;100.00
75640;BME280;64233;51.486;6.332;2023-11-19T01:35:07;95243.53;;;11.30;100.00
75640;BME280;64233;51.486;6.332;2023-11-19T01:37:33;95566.69;;;11.36;100.00
75640;BME280;64233;51.486;6.332;2023-11-19T01:40:00;95314.03;;;11.37;100.00
75640;BME280;64233;51.486;6.332;2023-11-19T01:42:25;95345.06;;;11.42;100.00
75640;BME280;64233;51.486;6.332;2023-11-19T01:44:58;95446.28;;;11.42;100.00
75640;BME280;64233;51.486;6.332;2023-11-19T01:47:25;95507.63;;;11.50;100.00
75640;BME280;64233;51.486;6.332;2023-11-19T01:49:51;95533.72;;;11.46;100.00
75640;BME280;64233;51.486;6.332;2023-11-19T01:52:16;95504.19;;;11.46;100.00
75640;BME280;64233;51.486;6.332;2023-11-19T01:54:42;95478.13;;;11.47;100.00
75640;BME280;64233;51.486;6.332;2023-11-19T01:57:08;95515.69;;;11.47;100.00
75640;BME280;64233;51.486;6.332;2023-11-19T01:59:34;95483.09;;;11.48;100.00
75640;BME280;64233;51.486;6.332;2023-11-19T02:02:00;95497.66;;;11.47;100.00
75640;BME280;64233;51.486;6.332;2023-11-19T02:04:25;95459.69;;;11.49;100.00
75640;BME280;64233;51.486;6.332;2023-11-19T02:06:51;95434.00;;;11.51;100.00
75640;BME280;64233;51.486;6.332;2023-11-19T02:09:19;95504.56;;;11.45;100.00
75640;BME280;64233;51.486;6.332;2023-11-19T02:11:45;95461.22;;;11.46;100.00
75640;BME280;64233;51.486;6.332;2023-11-19T02:14:13;95477.72;;;11.48;100.00
75640;BME280;64233;51.486;6.332;2023-11-19T02:16:39;95473.50;;;11.47;100.00
75640;BME280;64233;51.486;6.332;2023-11-19T02:19:04;95524.13;;;11.49;100.00
75640;BME280;64233;51.486;6.332;2023-11-19T02:21:31;95574.34;;;11.52;100.00
75640;BME280;64233;51.486;6.332;2023-11-19T02:23:56;95606.59;;;11.48;100.00
75640;BME280;64233;51.486;6.332;2023-11-19T02:26:30;95639.56;;;11.49;100.00
75640;BME280;64233;51.486;6.332;2023-11-19T02:28:57;95633.06;;;11.50;100.00
75640;BME280;64233;51.486;6.332;2023-11-19T02:31:22;95642.63;;;11.51;100.00
75640;BME280;64233;51.486;6.332;2023-11-19T02:33:48;95697.06;;;11.48;100.00
75640;BME280;64233;51.486;6.332;2023-11-19T02:36:15;95686.72;;;11.53;100.00
75640;BME280;64233;51.486;6.332;2023-11-19T02:38:42;95709.00;;;11.54;100.00
75640;BME280;64233;51.486;6.332;2023-11-19T02:41:07;95745.41;;;11.51;100.00
75640;BME280;64233;51.486;6.332;2023-11-19T02:43:34;95781.09;;;11.52;100.00
75640;BME280;64233;51.486;6.332;2023-11-19T02:46:03;95760.38;;;11.49;100.00
75640;BME280;64233;51.486;6.332;2023-11-19T02:48:35;95753.47;;;11.55;100.00
75640;BME280;64233;51.486;6.332;2023-11-19T02:51:01;95766.50;;;11.49;100.00
75640;BME280;64233;51.486;6.332;2023-11-19T02:53:28;95805.63;;;11.47;100.00
75640;BME280;64233;51.486;6.332;2023-11-19T02:55:54;95809.03;;;11.44;100.00
75640;BME280;64233;51.486;6.332;2023-11-19T02:58:26;95763.03;;;11.42;100.00
75640;BME280;64233;51.486;6.332;2023-11-19T03:00:53;95777.94;;;11.32;100.00
75640;BME280;64233;51.486;6.332;2023-11-19T03:03:27;95736.91;;;11.24;100.00
75640;BME280;64233;51.486;6.332;2023-11-19T03:06:07;95754.50;;;11.14;100.00
75640;BME280;64233;51.486;6.332;2023-11-19T03:08:34;95698.13;;;11.07;100.00
75640;BME280;64233;51.486;6.332;2023-11-19T03:11:00;95685.47;;;11.11;100.00
75640;BME280;64233;51.486;6.332;2023-11-19T03:13:25;95683.94;;;11.03;100.00
75640;BME280;64233;51.486;6.332;2023-11-19T03:15:50;95659.81;;;11.10;100.00
75640;BME280;64233;51.486;6.332;2023-11-19T03:18:16;95669.41;;;11.22;100.00
75640;BME280;64233;51.486;6.332;2023-11-19T03:20:42;95744.53;;;11.15;100.00
75640;BME280;64233;51.486;6.332;2023-11-19T03:23:07;95830.72;;;11.10;100.00
75640;BME280;64233;51.486;6.332;2023-11-19T03:25:32;95927.31;;;11.10;100.00
75640;BME280;64233;51.486;6.332;2023-11-19T03:28:02;96021.22;;;11.10;100.00
75640;BME280;64233;51.486;6.332;2023-11-19T03:30:29;96161.50;;;11.07;100.00
75640;BME280;64233;51.486;6.332;2023-11-19T03:32:57;96318.94;;;10.99;100.00
75640;BME280;64233;51.486;6.332;2023-11-19T03:35:24;96476.22;;;10.84;100.00
75640;BME280;64233;51.486;6.332;2023-11-19T03:37:50;96593.50;;;10.87;100.00
75640;BME280;64233;51.486;6.332;2023-11-19T03:40:16;96695.19;;;10.92;100.00
75640;BME280;64233;51.486;6.332;2023-11-19T03:42:41;96837.63;;;10.87;100.00
75640;BME280;64233;51.486;6.332;2023-11-19T03:45:07;96959.75;;;10.81;100.00
75640;BME280;64233;51.486;6.332;2023-11-19T03:47:35;97058.25;;;10.80;100.00
75640;BME280;64233;51.486;6.332;2023-11-19T03:50:01;97195.97;;;10.72;100.00
75640;BME280;64233;51.486;6.332;2023-11-19T03:52:26;97303.59;;;10.71;100.00
75640;BME280;64233;51.486;6.332;2023-11-19T03:54:55;97393.59;;;10.80;100.00
75640;BME280;64233;51.486;6.332;2023-11-19T03:57:21;97533.94;;;10.72;100.00
75640;BME280;64233;51.486;6.332;2023-11-19T03:59:47;97647.13;;;10.65;100.00
75640;BME280;64233;51.486;6.332;2023-11-19T04:02:13;97759.06;;;10.56;100.00
75640;BME280;64233;51.486;6.332;2023-11-19T04:04:38;97866.22;;;10.53;100.00
75640;BME280;64233;51.486;6.332;2023-11-19T04:07:04;97960.41;;;10.51;100.00
75640;BME280;64233;51.486;6.332;2023-11-19T04:09:30;98030.28;;;10.63;100.00
75640;BME280;64233;51.486;6.332;2023-11-19T04:11:56;98156.50;;;10.58;100.00
75640;BME280;64233;51.486;6.332;2023-11-19T04:14:22;98295.66;;;10.51;100.00
75640;BME280;64233;51.486;6.332;2023-11-19T04:16:47;98421.53;;;10.47;100.00
75640;BME280;64233;51.486;6.332;2023-11-19T04:19:12;98517.66;;;10.54;100.00
75640;BME280;64233;51.486;6.332;2023-11-19T04:21:41;98601.63;;;10.55;100.00
75640;BME280;64233;51.486;6.332;2023-11-19T04:24:09;98680.59;;;10.48;100.00
75640;BME280;64233;51.486;6.332;2023-11-19T04:26:44;98739.63;;;10.48;100.00
75640;BME280;64233;51.486;6.332;2023-11-19T04:29:14;98787.00;;;10.53;100.00
75640;BME280;64233;51.486;6.332;2023-11-19T04:31:40;98820.50;;;10.56;100.00
75640;BME280;64233;51.486;6.332;2023-11-19T04:34:06;98875.25;;;10.55;100.00
75640;BME280;64233;51.486;6.332;2023-11-19T04:36:32;98899.69;;;10.67;100.00
75640;BME280;64233;51.486;6.332;2023-11-19T04:38:58;98930.59;;;10.78;100.00
75640;BME280;64233;51.486;6.332;2023-11-19T04:41:24;98975.53;;;10.73;100.00
75640;BME280;64233;51.486;6.332;2023-11-19T04:43:50;99017.00;;;10.80;100.00
75640;BME280;64233;51.486;6.332;2023-11-19T04:46:15;99081.25;;;10.91;100.00
75640;BME280;64233;51.486;6.332;2023-11-19T04:48:41;99177.28;;;10.94;100.00
75640;BME280;64233;51.486;6.332;2023-11-19T04:51:07;99264.28;;;10.93;100.00
75640;BME280;64233;51.486;6.332;2023-11-19T04:53:34;99340.75;;;10.95;100.00
75640;BME280;64233;51.486;6.332;2023-11-19T04:56:00;99397.78;;;10.87;100.00
75640;BME280;64233;51.486;6.332;2023-11-19T04:58:25;99493.59;;;10.92;100.00
75640;BME280;64233;51.486;6.332;2023-11-19T05:00:50;99543.56;;;10.88;100.00
75640;BME280;64233;51.486;6.332;2023-11-19T05:03:16;99598.34;;;10.81;100.00
75640;BME280;64233;51.486;6.332;2023-11-19T05:05:41;99633.63;;;10.70;100.00
75640;BME280;64233;51.486;6.332;2023-11-19T05:08:06;99647.91;;;10.60;100.00
75640;BME280;64233;51.486;6.332;2023-11-19T05:10:31;99549.19;;;10.57;100.00
75640;BME280;64233;51.486;6.332;2023-11-19T05:12:57;99548.91;;;10.58;100.00
75640;BME280;64233;51.486;6.332;2023-11-19T05:15:22;99563.63;;;10.61;100.00
75640;BME280;64233;51.486;6.332;2023-11-19T05:17:47;99590.31;;;10.81;100.00
75640;BME280;64233;51.486;6.332;2023-11-19T05:20:13;99653.66;;;10.82;100.00
75640;BME280;64233;51.486;6.332;2023-11-19T05:22:42;99700.41;;;10.76;100.00
75640;BME280;64233;51.486;6.332;2023-11-19T05:25:07;99753.53;;;10.79;100.00
75640;BME280;64233;51.486;6.332;2023-11-19T05:27:34;99829.25;;;10.71;100.00
75640;BME280;64233;51.486;6.332;2023-11-19T05:30:01;99873.59;;;10.58;100.00
75640;BME280;64233;51.486;6.332;2023-11-19T05:32:26;99910.91;;;10.55;100.00
75640;BME280;64233;51.486;6.332;2023-11-19T05:34:51;99944.72;;;10.50;100.00
75640;BME280;64233;51.486;6.332;2023-11-19T05:37:17;100005.38;;;10.46;100.00
75640;BME280;64233;51.486;6.332;2023-11-19T05:39:42;100049.63;;;10.44;100.00
75640;BME280;64233;51.486;6.332;2023-11-19T05:42:07;100171.44;;;10.43;100.00
75640;BME280;64233;51.486;6.332;2023-11-19T05:44:32;100319.31;;;10.51;100.00
75640;BME280;64233;51.486;6.332;2023-11-19T05:46:58;100373.19;;;10.40;100.00
75640;BME280;64233;51.486;6.332;2023-11-19T05:49:23;100423.63;;;10.38;100.00
75640;BME280;64233;51.486;6.332;2023-11-19T05:51:48;100501.47;;;10.43;100.00
75640;BME280;64233;51.486;6.332;2023-11-19T05:54:14;100483.72;;;10.37;100.00
75640;BME280;64233;51.486;6.332;2023-11-19T05:56:39;100558.50;;;10.33;100.00
75640;BME280;64233;51.486;6.332;2023-11-19T05:59:04;100631.28;;;10.37;100.00
75640;BME280;64233;51.486;6.332;2023-11-19T06:01:35;100702.97;;;10.41;100.00
75640;BME280;64233;51.486;6.332;2023-11-19T06:04:00;100762.50;;;10.38;100.00
75640;BME280;64233;51.486;6.332;2023-11-19T06:06:28;100790.97;;;10.39;100.00
75640;BME280;64233;51.486;6.332;2023-11-19T06:08:53;100827.47;;;10.23;100.00
75640;BME280;64233;51.486;6.332;2023-11-19T06:11:20;100830.75;;;10.08;100.00
75640;BME280;64233;51.486;6.332;2023-11-19T06:13:46;100831.88;;;10.12;100.00
75640;BME280;64233;51.486;6.332;2023-11-19T06:16:12;100829.84;;;10.37;100.00
75640;BME280;64233;51.486;6.332;2023-11-19T06:18:37;100834.63;;;10.17;100.00
75640;BME280;64233;51.486;6.332;2023-11-19T06:21:03;100830.72;;;10.25;100.00
75640;BME280;64233;51.486;6.332;2023-11-19T06:23:28;100826.09;;;10.21;100.00
75640;BME280;64233;51.486;6.332;2023-11-19T06:25:53;100821.41;;;10.11;100.00
75640;BME280;64233;51.486;6.332;2023-11-19T06:28:19;100816.84;;;10.11;100.00
75640;BME280;64233;51.486;6.332;2023-11-19T06:30:44;100813.53;;;10.04;100.00
75640;BME280;64233;51.486;6.332;2023-11-19T06:33:12;100817.47;;;10.19;100.00
75640;BME280;64233;51.486;6.332;2023-11-19T06:35:38;100811.88;;;10.20;100.00
75640;BME280;64233;51.486;6.332;2023-11-19T06:38:03;100810.00;;;10.21;100.00
75640;BME280;64233;51.486;6.332;2023-11-19T06:40:32;100808.06;;;10.16;100.00
75640;BME280;64233;51.486;6.332;2023-11-19T06:42:58;100814.31;;;10.05;100.00
75640;BME280;64233;51.486;6.332;2023-11-19T06:45:23;100811.00;;;9.97;100.00
75640;BME280;64233;51.486;6.332;2023-11-19T06:47:48;100812.28;;;10.12;100.00
75640;BME280;64233;51.486;6.332;2023-11-19T06:50:14;100816.06;;;9.94;100.00
75640;BME280;64233;51.486;6.332;2023-11-19T06:52:40;100796.97;;;9.90;100.00
75640;BME280;64233;51.486;6.332;2023-11-19T06:55:05;100805.59;;;9.92;100.00
75640;BME280;64233;51.486;6.332;2023-11-19T06:57:31;100823.78;;;9.90;100.00
75640;BME280;64233;51.486;6.332;2023-11-19T06:59:57;100808.72;;;9.89;100.00
75640;BME280;64233;51.486;6.332;2023-11-19T07:02:23;100806.31;;;9.88;100.00
75640;BME280;64233;51.486;6.332;2023-11-19T07:04:48;100810.94;;;9.92;100.00
75640;BME280;64233;51.486;6.332;2023-11-19T07:07:14;100808.66;;;10.01;100.00
75640;BME280;64233;51.486;6.332;2023-11-19T07:09:40;100824.19;;;9.82;100.00
75640;BME280;64233;51.486;6.332;2023-11-19T07:12:06;100804.47;;;9.71;100.00
75640;BME280;64233;51.486;6.332;2023-11-19T07:14:31;100825.31;;;9.86;100.00
75640;BME280;64233;51.486;6.332;2023-11-19T07:16:57;100807.84;;;9.83;100.00
75640;BME280;64233;51.486;6.332;2023-11-19T07:19:22;100811.28;;;9.79;100.00
75640;BME280;64233;51.486;6.332;2023-11-19T07:21:47;100806.25;;;9.82;100.00
75640;BME280;64233;51.486;6.332;2023-11-19T07:24:12;100797.22;;;9.89;100.00
75640;BME280;64233;51.486;6.332;2023-11-19T07:26:42;100804.44;;;9.88;100.00
75640;BME280;64233;51.486;6.332;2023-11-19T07:29:08;100800.47;;;9.74;100.00
75640;BME280;64233;51.486;6.332;2023-11-19T07:31:33;100804.13;;;9.68;100.00
75640;BME280;64233;51.486;6.332;2023-11-19T07:33:58;100802.81;;;9.87;100.00
75640;BME280;64233;51.486;6.332;2023-11-19T07:36:24;100799.88;;;9.89;100.00
75640;BME280;64233;51.486;6.332;2023-11-19T07:38:49;100799.25;;;9.81;100.00
75640;BME280;64233;51.486;6.332;2023-11-19T07:41:15;100792.84;;;9.82;100.00
75640;BME280;64233;51.486;6.332;2023-11-19T07:43:43;100796.47;;;9.93;100.00
75640;BME280;64233;51.486;6.332;2023-11-19T07:46:13;100792.91;;;9.88;100.00
75640;BME280;64233;51.486;6.332;2023-11-19T07:48:39;100803.88;;;9.86;100.00
75640;BME280;64233;51.486;6.332;2023-11-19T07:51:05;100800.00;;;9.77;100.00
75640;BME280;64233;51.486;6.332;2023-11-19T07:53:30;100822.47;;;9.93;100.00
75640;BME280;64233;51.486;6.332;2023-11-19T07:55:55;100826.44;;;10.07;100.00
75640;BME280;64233;51.486;6.332;2023-11-19T07:58:21;100819.78;;;10.10;100.00
75640;BME280;64233;51.486;6.332;2023-11-19T08:00:46;100805.56;;;10.09;100.00
75640;BME280;64233;51.486;6.332;2023-11-19T08:03:11;100801.00;;;10.10;100.00
75640;BME280;64233;51.486;6.332;2023-11-19T08:05:37;100788.13;;;10.12;100.00
75640;BME280;64233;51.486;6.332;2023-11-19T08:08:02;100790.81;;;10.12;100.00
75640;BME280;64233;51.486;6.332;2023-11-19T08:10:27;100788.78;;;10.19;100.00
75640;BME280;64233;51.486;6.332;2023-11-19T08:12:54;100790.09;;;10.16;100.00
75640;BME280;64233;51.486;6.332;2023-11-19T08:15:19;100791.06;;;10.10;100.00
75640;BME280;64233;51.486;6.332;2023-11-19T08:17:44;100782.59;;;10.19;100.00
75640;BME280;64233;51.486;6.332;2023-11-19T08:20:10;100780.72;;;10.19;100.00
75640;BME280;64233;51.486;6.332;2023-11-19T08:22:38;100769.94;;;10.14;100.00
75640;BME280;64233;51.486;6.332;2023-11-19T08:25:05;100777.31;;;10.24;100.00
75640;BME280;64233;51.486;6.332;2023-11-19T08:27:30;100772.59;;;10.31;100.00
75640;BME280;64233;51.486;6.332;2023-11-19T08:29:56;100757.28;;;10.31;100.00
75640;BME280;64233;51.486;6.332;2023-11-19T08:32:22;100770.44;;;10.33;100.00
75640;BME280;64233;51.486;6.332;2023-11-19T08:34:48;100765.44;;;10.37;100.00
75640;BME280;64233;51.486;6.332;2023-11-19T08:37:13;100759.81;;;10.38;100.00
75640;BME280;64233;51.486;6.332;2023-11-19T08:39:39;100757.66;;;10.35;100.00
75640;BME280;64233;51.486;6.332;2023-11-19T08:42:05;100757.22;;;10.43;100.00
75640;BME280;64233;51.486;6.332;2023-11-19T08:44:30;100773.94;;;10.50;100.00
75640;BME280;64233;51.486;6.332;2023-11-19T08:46:56;100766.06;;;10.44;100.00
75640;BME280;64233;51.486;6.332;2023-11-19T08:49:21;100766.13;;;10.49;100.00
75640;BME280;64233;51.486;6.332;2023-11-19T08:51:46;100764.50;;;10.48;100.00
75640;BME280;64233;51.486;6.332;2023-11-19T08:54:11;100759.75;;;10.55;100.00
75640;BME280;64233;51.486;6.332;2023-11-19T08:56:38;100748.44;;;10.53;100.00
75640;BME280;64233;51.486;6.332;2023-11-19T08:59:04;100754.41;;;10.60;100.00
75640;BME280;64233;51.486;6.332;2023-11-19T09:01:30;100750.69;;;10.61;100.00
75640;BME280;64233;51.486;6.332;2023-11-19T09:03:55;100758.03;;;10.71;100.00
75640;BME280;64233;51.486;6.332;2023-11-19T09:06:20;100756.22;;;10.77;100.00
75640;BME280;64233;51.486;6.332;2023-11-19T09:08:46;100755.19;;;10.83;100.00
75640;BME280;64233;51.486;6.332;2023-11-19T09:11:11;100743.97;;;10.86;100.00
75640;BME280;64233;51.486;6.332;2023-11-19T09:13:37;100755.47;;;10.81;100.00
75640;BME280;64233;51.486;6.332;2023-11-19T09:16:02;100751.22;;;10.85;100.00
75640;BME280;64233;51.486;6.332;2023-11-19T09:18:29;100754.47;;;10.88;100.00
75640;BME280;64233;51.486;6.332;2023-11-19T09:20:54;100734.97;;;10.97;100.00
75640;BME280;64233;51.486;6.332;2023-11-19T09:23:19;100733.72;;;11.10;100.00
75640;BME280;64233;51.486;6.332;2023-11-19T09:25:45;100739.97;;;11.16;100.00
75640;BME280;64233;51.486;6.332;2023-11-19T09:28:10;100739.72;;;11.23;100.00
75640;BME280;64233;51.486;6.332;2023-11-19T09:30:36;100745.06;;;11.17;100.00
75640;BME280;64233;51.486;6.332;2023-11-19T09:33:01;100726.41;;;11.06;100.00
75640;BME280;64233;51.486;6.332;2023-11-19T09:35:26;100724.00;;;11.04;100.00
75640;BME280;64233;51.486;6.332;2023-11-19T09:37:52;100729.06;;;11.00;100.00
75640;BME280;64233;51.486;6.332;2023-11-19T09:40:18;100731.78;;;11.06;100.00
75640;BME280;64233;51.486;6.332;2023-11-19T09:42:44;100728.81;;;11.02;100.00
75640;BME280;64233;51.486;6.332;2023-11-19T09:45:14;100723.25;;;11.09;100.00
75640;BME280;64233;51.486;6.332;2023-11-19T09:47:42;100723.84;;;11.16;100.00
75640;BME280;64233;51.486;6.332;2023-11-19T09:50:08;100726.53;;;11.16;100.00
75640;BME280;64233;51.486;6.332;2023-11-19T09:52:34;100722.75;;;11.17;100.00
75640;BME280;64233;51.486;6.332;2023-11-19T09:55:00;100704.72;;;11.12;100.00
75640;BME280;64233;51.486;6.332;2023-11-19T09:57:25;100702.59;;;11.14;100.00
75640;BME280;64233;51.486;6.332;2023-11-19T09:59:52;100700.19;;;11.13;100.00
75640;BME280;64233;51.486;6.332;2023-11-19T10:02:18;100709.28;;;11.12;100.00
75640;BME280;64233;51.486;6.332;2023-11-19T10:04:45;100717.91;;;11.14;100.00
75640;BME280;64233;51.486;6.332;2023-11-19T10:07:12;100717.44;;;11.22;100.00
75640;BME280;64233;51.486;6.332;2023-11-19T10:09:37;100712.91;;;11.28;100.00
75640;BME280;64233;51.486;6.332;2023-11-19T10:12:03;100698.75;;;11.37;100.00
75640;BME280;64233;51.486;6.332;2023-11-19T10:14:30;100695.31;;;11.47;100.00
75640;BME280;64233;51.486;6.332;2023-11-19T10:16:56;100683.78;;;11.47;100.00
75640;BME280;64233;51.486;6.332;2023-11-19T10:19:22;100669.72;;;11.40;100.00
75640;BME280;64233;51.486;6.332;2023-11-19T10:21:48;100660.00;;;11.33;100.00
75640;BME280;64233;51.486;6.332;2023-11-19T10:24:13;100651.41;;;11.31;100.00
75640;BME280;64233;51.486;6.332;2023-11-19T10:26:40;100646.88;;;11.37;100.00
75640;BME280;64233;51.486;6.332;2023-11-19T10:29:05;100651.00;;;11.50;100.00
75640;BME280;64233;51.486;6.332;2023-11-19T10:31:31;100638.13;;;11.62;100.00
75640;BME280;64233;51.486;6.332;2023-11-19T10:33:56;100613.19;;;11.72;100.00
75640;BME280;64233;51.486;6.332;2023-11-19T10:36:21;100612.97;;;11.89;100.00
75640;BME280;64233;51.486;6.332;2023-11-19T10:38:56;100590.47;;;11.95;100.00
75640;BME280;64233;51.486;6.332;2023-11-19T10:41:32;100581.53;;;11.89;100.00
75640;BME280;64233;51.486;6.332;2023-11-19T10:43:58;100558.09;;;11.85;100.00
75640;BME280;64233;51.486;6.332;2023-11-19T10:46:39;100547.09;;;11.86;100.00
75640;BME280;64233;51.486;6.332;2023-11-19T10:49:05;100530.69;;;11.93;100.00
75640;BME280;64233;51.486;6.332;2023-11-19T10:51:32;100513.75;;;11.93;100.00
75640;BME280;64233;51.486;6.332;2023-11-19T10:54:02;100492.00;;;11.94;100.00
75640;BME280;64233;51.486;6.332;2023-11-19T10:56:30;100472.38;;;12.09;100.00
75640;BME280;64233;51.486;6.332;2023-11-19T10:58:56;100457.06;;;11.99;100.00
75640;BME280;64233;51.486;6.332;2023-11-19T11:01:38;100458.34;;;11.92;100.00
75640;BME280;64233;51.486;6.332;2023-11-19T11:04:13;100423.94;;;12.14;100.00
75640;BME280;64233;51.486;6.332;2023-11-19T11:06:39;100423.16;;;12.14;100.00
75640;BME280;64233;51.486;6.332;2023-11-19T11:09:05;100423.94;;;12.09;100.00
75640;BME280;64233;51.486;6.332;2023-11-19T11:11:32;100414.00;;;12.04;100.00
75640;BME280;64233;51.486;6.332;2023-11-19T11:13:58;100433.34;;;11.96;100.00
75640;BME280;64233;51.486;6.332;2023-11-19T11:16:25;100444.63;;;11.88;100.00
75640;BME280;64233;51.486;6.332;2023-11-19T11:18:51;100427.94;;;11.86;100.00
75640;BME280;64233;51.486;6.332;2023-11-19T11:21:20;100394.59;;;11.82;100.00
75640;BME280;64233;51.486;6.332;2023-11-19T11:32:45;100367.47;;;11.94;100.00
75640;BME280;64233;51.486;6.332;2023-11-19T11:35:55;100335.41;;;11.92;100.00
75640;BME280;64233;51.486;6.332;2023-11-19T11:38:22;100335.44;;;12.08;100.00
75640;BME280;64233;51.486;6.332;2023-11-19T11:41:27;100310.94;;;12.19;100.00
75640;BME280;64233;51.486;6.332;2023-11-19T11:43:53;100304.53;;;12.05;100.00
75640;BME280;64233;51.486;6.332;2023-11-19T11:49:04;100258.53;;;11.86;100.00
75640;BME280;64233;51.486;6.332;2023-11-19T11:54:08;100284.88;;;11.79;100.00
75640;BME280;64233;51.486;6.332;2023-11-19T11:56:37;100289.47;;;11.78;100.00
75640;BME280;64233;51.486;6.332;2023-11-19T11:59:03;100286.22;;;11.81;100.00
75640;BME280;64233;51.486;6.332;2023-11-19T12:01:29;100288.94;;;11.86;100.00
75640;BME280;64233;51.486;6.332;2023-11-19T12:03:56;100293.75;;;11.89;100.00
75640;BME280;64233;51.486;6.332;2023-11-19T12:06:22;100296.72;;;11.83;100.00
75640;BME280;64233;51.486;6.332;2023-11-19T12:08:47;100295.91;;;11.72;100.00
75640;BME280;64233;51.486;6.332;2023-11-19T12:11:12;100287.59;;;11.63;100.00
75640;BME280;64233;51.486;6.332;2023-11-19T12:13:53;100288.66;;;11.42;100.00
75640;BME280;64233;51.486;6.332;2023-11-19T12:16:20;100315.22;;;11.23;100.00
75640;BME280;64233;51.486;6.332;2023-11-19T12:18:47;100346.66;;;11.22;100.00
75640;BME280;64233;51.486;6.332;2023-11-19T12:21:27;100349.66;;;11.26;100.00
75640;BME280;64233;51.486;6.332;2023-11-19T12:23:54;100363.59;;;11.28;100.00
75640;BME280;64233;51.486;6.332;2023-11-19T12:26:36;100401.19;;;11.17;100.00
75640;BME280;64233;51.486;6.332;2023-11-19T12:29:02;100385.38;;;11.26;100.00
75640;BME280;64233;51.486;6.332;2023-11-19T12:31:29;100379.22;;;11.46;100.00
75640;BME280;64233;51.486;6.332;2023-11-19T12:33:54;100382.47;;;11.43;100.00
75640;BME280;64233;51.486;6.332;2023-11-19T12:36:20;100385.41;;;11.42;100.00
75640;BME280;64233;51.486;6.332;2023-11-19T12:38:45;100374.38;;;11.38;100.00
75640;BME280;64233;51.486;6.332;2023-11-19T12:41:11;100364.16;;;11.35;100.00
75640;BME280;64233;51.486;6.332;2023-11-19T12:43:37;100338.09;;;11.51;100.00
75640;BME280;64233;51.486;6.332;2023-11-19T12:46:16;100336.50;;;11.60;100.00
75640;BME280;64233;51.486;6.332;2023-11-19T12:48:42;100326.03;;;11.74;100.00
75640;BME280;64233;51.486;6.332;2023-11-19T12:51:07;100333.28;;;11.79;100.00
75640;BME280;64233;51.486;6.332;2023-11-19T12:53:55;100332.75;;;11.61;100.00
75640;BME280;64233;51.486;6.332;2023-11-19T12:56:22;100329.25;;;11.56;100.00